createdAt,value
2022-08-26T00:00:29.499Z,10.73
2022-08-26T00:03:26.548Z,11.02
2022-08-26T00:06:26.029Z,10.60
2022-08-26T00:09:24.959Z,10.02
2022-08-26T00:12:21.927Z,11.73
2022-08-26T00:15:33.344Z,10.60
2022-08-26T00:18:30.897Z,10.38
2022-08-26T00:21:35.692Z,10.30
2022-08-26T00:24:34.593Z,10.82
2022-08-26T00:27:33.955Z,9.48
2022-08-26T00:30:31.952Z,10.82
2022-08-26T00:33:28.951Z,10.48
2022-08-26T00:36:25.827Z,10.73
2022-08-26T00:39:26.711Z,10.40
2022-08-26T00:42:23.838Z,10.00
2022-08-26T00:45:20.877Z,10.07
2022-08-26T00:48:24.100Z,11.05
2022-08-26T00:51:29.690Z,9.93
2022-08-26T00:54:30.571Z,11.52
2022-08-26T00:57:28.314Z,10.23
2022-08-26T01:00:29.413Z,10.48
2022-08-26T01:03:28.939Z,9.88
2022-08-26T01:06:27.230Z,9.85
2022-08-26T01:09:24.591Z,10.43
2022-08-26T01:12:23.775Z,10.13
2022-08-26T01:15:35.267Z,10.60
2022-08-26T01:18:33.052Z,11.68
2022-08-26T01:21:44.545Z,10.73
2022-08-26T01:24:42.663Z,10.57
2022-08-26T01:27:39.976Z,10.00
2022-08-26T01:30:40.403Z,10.50
2022-08-26T01:33:52.635Z,11.63
2022-08-26T01:36:54.707Z,10.80
2022-08-26T01:39:55.269Z,10.25
2022-08-26T01:42:54.121Z,10.45
2022-08-26T01:45:54.660Z,11.40
2022-08-26T01:48:54.395Z,11.57
2022-08-26T01:51:54.914Z,10.83
2022-08-26T01:54:54.420Z,11.48
2022-08-26T01:57:56.388Z,10.30
2022-08-26T02:00:53.497Z,10.10
2022-08-26T02:04:43.237Z,11.32
2022-08-26T02:07:41.043Z,10.85
2022-08-26T02:10:37.977Z,12.02
2022-08-26T02:13:49.184Z,10.73
2022-08-26T02:16:49.067Z,11.18
2022-08-26T02:19:49.060Z,10.18
2022-08-26T02:22:47.470Z,10.15
2022-08-26T02:26:19.725Z,11.90
2022-08-26T02:29:35.247Z,11.43
2022-08-26T02:32:32.334Z,11.60
2022-08-26T02:35:30.461Z,11.43
2022-08-26T02:38:27.710Z,11.50
2022-08-26T02:41:24.550Z,11.73
2022-08-26T02:44:21.701Z,11.45
2022-08-26T02:47:18.537Z,11.65
2022-08-26T02:50:15.421Z,11.43
2022-08-26T02:53:15.252Z,11.60
2022-08-26T02:56:12.088Z,10.05
2022-08-26T02:59:12.278Z,11.35
2022-08-26T03:02:10.993Z,11.02
2022-08-26T03:05:08.697Z,10.68
2022-08-26T03:08:05.750Z,11.55
2022-08-26T03:11:02.606Z,11.90
2022-08-26T03:14:01.748Z,11.45
2022-08-26T03:17:00.513Z,10.52
2022-08-26T03:19:57.676Z,11.50
2022-08-26T03:22:56.224Z,10.95
2022-08-26T03:25:53.800Z,10.70
2022-08-26T03:29:08.847Z,10.95
2022-08-26T03:32:07.206Z,11.27
2022-08-26T03:35:04.624Z,10.73
2022-08-26T03:38:03.422Z,10.98
2022-08-26T03:41:01.040Z,9.60
2022-08-26T03:44:01.643Z,11.63
2022-08-26T03:46:58.855Z,10.57
2022-08-26T03:49:56.888Z,11.10
2022-08-26T03:52:55.938Z,10.63
2022-08-26T03:55:53.311Z,11.30
2022-08-26T03:58:50.598Z,11.75
2022-08-26T04:01:47.899Z,11.27
2022-08-26T04:04:45.058Z,9.93
2022-08-26T04:07:45.438Z,11.25
2022-08-26T04:10:43.469Z,9.73
2022-08-26T04:13:40.666Z,10.27
2022-08-26T04:16:38.877Z,11.32
2022-08-26T04:19:36.434Z,12.05
2022-08-26T04:22:33.838Z,11.10
2022-08-26T04:25:30.685Z,11.55
2022-08-26T04:28:29.519Z,12.13
2022-08-26T04:31:26.483Z,11.30
2022-08-26T04:34:29.057Z,10.45
2022-08-26T04:37:25.932Z,12.45
2022-08-26T04:40:24.052Z,12.18
2022-08-26T04:43:23.287Z,11.50
2022-08-26T04:46:23.212Z,11.95
2022-08-26T04:49:21.038Z,11.85
2022-08-26T04:52:17.887Z,14.30
2022-08-26T04:55:15.171Z,12.80
2022-08-26T04:58:20.186Z,12.63
2022-08-26T05:01:17.390Z,12.32
2022-08-26T05:04:16.349Z,11.30
2022-08-26T05:07:15.680Z,12.02
2022-08-26T05:10:14.619Z,13.13
2022-08-26T05:13:17.778Z,13.13
2022-08-26T05:16:17.530Z,12.75
2022-08-26T05:19:14.460Z,12.55
2022-08-26T05:22:15.590Z,12.15
2022-08-26T05:25:15.241Z,11.00
2022-08-26T05:28:14.330Z,11.48
2022-08-26T05:31:18.764Z,12.00
2022-08-26T05:34:15.636Z,11.98
2022-08-26T05:37:13.690Z,12.35
2022-08-26T05:40:11.521Z,11.10
2022-08-26T05:43:11.620Z,12.05
2022-08-26T05:46:08.574Z,11.95
2022-08-26T05:49:12.316Z,12.35
2022-08-26T05:52:09.756Z,12.80
2022-08-26T05:55:07.671Z,11.63
2022-08-26T05:58:04.658Z,10.63
2022-08-26T06:01:15.745Z,10.07
2022-08-26T06:04:13.283Z,11.43
2022-08-26T06:07:11.929Z,10.80
2022-08-26T06:10:31.619Z,10.75
2022-08-26T06:13:32.014Z,11.02
2022-08-26T06:16:30.036Z,12.20
2022-08-26T06:19:33.039Z,10.65
2022-08-26T06:22:49.626Z,10.70
2022-08-26T06:25:48.336Z,9.73
2022-08-26T06:28:45.846Z,12.55
2022-08-26T06:31:43.171Z,12.10
2022-08-26T06:34:41.040Z,12.43
2022-08-26T06:37:38.632Z,11.70
2022-08-26T06:40:49.863Z,10.55
2022-08-26T06:43:48.259Z,11.20
2022-08-26T06:46:45.659Z,10.63
2022-08-26T06:49:42.581Z,9.50
2022-08-26T06:52:44.273Z,10.63
2022-08-26T06:55:46.136Z,11.38
2022-08-26T06:58:43.525Z,11.30
2022-08-26T07:01:46.076Z,11.63
2022-08-26T07:04:44.404Z,12.15
2022-08-26T07:07:46.361Z,11.20
2022-08-26T07:10:43.624Z,13.18
2022-08-26T07:13:41.979Z,11.20
2022-08-26T07:16:41.242Z,11.10
2022-08-26T07:19:38.395Z,11.70
2022-08-26T07:22:37.230Z,12.20
2022-08-26T07:25:37.775Z,10.23
2022-08-26T07:28:35.378Z,12.52
2022-08-26T07:31:39.570Z,12.10
2022-08-26T07:34:41.910Z,12.82
2022-08-26T07:37:39.214Z,11.90
2022-08-26T07:40:37.052Z,13.57
2022-08-26T07:43:36.203Z,12.32
2022-08-26T07:46:35.694Z,12.05
2022-08-26T07:49:32.643Z,12.23
2022-08-26T07:52:30.297Z,9.40
2022-08-26T07:55:27.896Z,10.20
2022-08-26T07:58:24.775Z,9.15
2022-08-26T08:01:26.893Z,9.18
2022-08-26T08:04:26.607Z,8.55
2022-08-26T08:07:38.563Z,9.02
2022-08-26T08:10:41.426Z,7.40
2022-08-26T08:13:46.159Z,8.60
2022-08-26T08:16:47.061Z,9.32
2022-08-26T08:19:48.135Z,9.32
2022-08-26T08:22:45.146Z,9.02
2022-08-26T08:25:44.512Z,8.45
2022-08-26T08:28:41.619Z,8.68
2022-08-26T08:31:56.628Z,9.07
2022-08-26T08:34:54.856Z,9.57
2022-08-26T08:37:54.793Z,8.13
2022-08-26T08:40:52.525Z,8.40
2022-08-26T08:43:51.834Z,8.52
2022-08-26T08:46:58.568Z,9.07
2022-08-26T08:50:04.664Z,8.10
2022-08-26T08:53:10.861Z,7.75
2022-08-26T08:56:28.111Z,7.70
2022-08-26T08:59:36.014Z,8.32
2022-08-26T09:03:01.698Z,7.40
2022-08-26T09:06:01.480Z,6.90
2022-08-26T09:09:02.839Z,7.47
2022-08-26T09:12:02.369Z,6.20
2022-08-26T09:15:33.171Z,7.25
2022-08-26T09:19:05.987Z,7.30
2022-08-26T09:22:08.785Z,7.32
2022-08-26T09:25:12.112Z,7.75
2022-08-26T09:28:20.009Z,9.45
2022-08-26T09:31:27.866Z,7.93
2022-08-26T09:34:27.723Z,8.73
2022-08-26T09:40:59.132Z,7.57
2022-08-26T09:44:18.143Z,7.88
2022-08-26T09:47:31.879Z,7.70
2022-08-26T09:50:33.226Z,7.03
2022-08-26T09:53:36.496Z,7.07
2022-08-26T09:56:39.155Z,7.25
2022-08-26T09:59:36.128Z,5.95
2022-08-26T10:02:32.841Z,7.00
2022-08-26T10:05:54.156Z,6.05
2022-08-26T10:08:57.379Z,6.32
2022-08-26T10:12:00.172Z,7.13
2022-08-26T10:15:03.665Z,6.85
2022-08-26T10:18:20.208Z,7.32
2022-08-26T10:21:26.672Z,7.32
2022-08-26T10:24:44.417Z,7.65
2022-08-26T10:28:04.811Z,7.80
2022-08-26T10:31:40.223Z,8.18
2022-08-26T10:34:37.612Z,7.13
2022-08-26T10:37:46.652Z,8.82
2022-08-26T10:41:02.625Z,7.90
2022-08-26T10:44:11.132Z,7.72
2022-08-26T10:47:25.944Z,7.57
2022-08-26T10:50:32.844Z,7.45
2022-08-26T10:54:06.644Z,7.97
2022-08-26T10:57:35.893Z,7.90
2022-08-26T11:01:10.542Z,7.72
2022-08-26T11:04:28.346Z,7.35
2022-08-26T11:07:31.619Z,6.43
2022-08-26T11:10:59.682Z,7.05
2022-08-26T11:13:57.201Z,7.32
2022-08-26T11:16:59.771Z,6.72
2022-08-26T11:20:01.451Z,7.40
2022-08-26T11:23:26.702Z,8.30
2022-08-26T11:26:55.398Z,7.43
2022-08-26T11:30:04.925Z,7.72
2022-08-26T11:33:01.788Z,8.63
2022-08-26T11:35:58.642Z,9.98
2022-08-26T11:38:55.790Z,9.20
2022-08-26T11:41:56.036Z,10.05
2022-08-26T11:44:58.083Z,8.95
2022-08-26T11:51:02.456Z,11.38
2022-08-26T11:54:29.249Z,9.77
2022-08-26T11:57:44.920Z,10.23
2022-08-26T12:01:09.612Z,9.85
2022-08-26T12:04:17.839Z,10.95
2022-08-26T12:07:15.699Z,10.02
2022-08-26T12:10:32.694Z,9.93
2022-08-26T12:13:30.525Z,9.55
2022-08-26T12:16:36.917Z,9.43
2022-08-26T12:19:34.232Z,9.30
2022-08-26T12:22:36.121Z,9.50
2022-08-26T12:25:36.226Z,9.25
2022-08-26T12:28:33.638Z,9.63
2022-08-26T12:31:38.009Z,9.90
2022-08-26T12:34:35.733Z,9.18
2022-08-26T12:37:37.302Z,9.13
2022-08-26T12:40:44.111Z,9.40
2022-08-26T12:43:44.781Z,8.57
2022-08-26T12:46:41.654Z,8.05
2022-08-26T12:49:41.274Z,10.25
2022-08-26T12:53:09.286Z,9.67
2022-08-26T12:56:27.771Z,8.95
2022-08-26T12:59:26.598Z,9.38
2022-08-26T13:02:39.967Z,8.77
2022-08-26T13:05:37.919Z,9.35
2022-08-26T13:08:35.760Z,9.15
2022-08-26T13:11:54.224Z,9.63
2022-08-26T13:14:51.094Z,10.00
2022-08-26T13:17:47.938Z,10.75
2022-08-26T13:20:44.861Z,10.48
2022-08-26T13:23:42.631Z,10.05
2022-08-26T13:26:45.213Z,10.35
2022-08-26T13:29:42.169Z,9.45
2022-08-26T13:32:39.332Z,10.00
2022-08-26T13:35:37.279Z,9.60
2022-08-26T13:38:34.337Z,9.00
2022-08-26T13:41:32.003Z,9.30
2022-08-26T13:44:28.903Z,8.85
2022-08-26T13:47:26.172Z,8.63
2022-08-26T13:50:24.679Z,8.50
2022-08-26T13:53:21.670Z,8.80
2022-08-26T13:56:19.721Z,8.70
2022-08-26T13:59:16.657Z,8.00
2022-08-26T14:02:13.596Z,5.32
2022-08-26T14:05:10.604Z,5.03
2022-08-26T14:08:08.436Z,4.38
2022-08-26T14:11:05.952Z,4.45
2022-08-26T14:14:02.999Z,3.95
2022-08-26T14:17:00.630Z,3.17
2022-08-26T14:19:57.816Z,3.55
2022-08-26T14:23:13.154Z,3.88
2022-08-26T14:26:11.957Z,3.88
2022-08-26T14:29:24.828Z,4.00
2022-08-26T14:32:27.148Z,3.70
2022-08-26T14:35:27.449Z,4.60
2022-08-26T14:41:22.116Z,4.40
2022-08-26T14:44:19.032Z,4.20
2022-08-26T14:47:15.898Z,4.68
2022-08-26T14:50:15.793Z,4.90
2022-08-26T14:53:31.164Z,4.65
2022-08-26T14:56:30.377Z,5.50
2022-08-26T14:59:32.274Z,4.38
2022-08-26T15:02:33.180Z,4.13
2022-08-26T15:05:30.797Z,4.10
2022-08-26T15:08:27.649Z,4.15
2022-08-26T15:11:24.843Z,4.00
2022-08-26T15:14:22.742Z,4.90
2022-08-26T15:17:19.610Z,5.13
2022-08-26T15:20:16.534Z,4.30
2022-08-26T15:23:13.394Z,4.60
2022-08-26T15:26:11.960Z,5.30
2022-08-26T15:29:08.822Z,4.00
2022-08-26T15:32:05.914Z,3.70
2022-08-26T15:35:08.215Z,4.50
2022-08-26T15:38:06.043Z,4.32
2022-08-26T15:41:06.321Z,4.35
2022-08-26T15:44:06.175Z,4.22
2022-08-26T15:47:03.235Z,4.13
2022-08-26T15:50:00.090Z,4.07
2022-08-26T15:52:59.496Z,3.35
2022-08-26T15:55:57.749Z,4.40
2022-08-26T15:58:56.118Z,3.58
2022-08-26T16:01:53.392Z,4.13
2022-08-26T16:04:50.266Z,3.22
2022-08-26T16:07:47.149Z,4.22
2022-08-26T16:10:50.390Z,4.43
2022-08-26T16:13:47.814Z,3.50
2022-08-26T16:16:44.753Z,4.65
2022-08-26T16:19:41.563Z,4.43
2022-08-26T16:22:38.460Z,4.00
2022-08-26T16:25:35.297Z,3.97
2022-08-26T16:28:32.117Z,4.03
2022-08-26T16:31:29.334Z,3.88
2022-08-26T16:34:26.237Z,3.70
2022-08-26T16:37:23.096Z,4.30
2022-08-26T16:40:20.562Z,4.25
2022-08-26T16:43:17.447Z,5.13
2022-08-26T16:46:16.146Z,4.55
2022-08-26T16:49:13.101Z,5.20
2022-08-26T16:52:11.245Z,5.03
2022-08-26T16:55:15.249Z,5.15
2022-08-26T16:58:12.248Z,5.03
2022-08-26T17:01:09.468Z,5.15
2022-08-26T17:04:06.478Z,5.20
2022-08-26T17:07:03.856Z,5.03
2022-08-26T17:10:00.828Z,5.60
2022-08-26T17:12:57.755Z,5.28
2022-08-26T17:15:56.311Z,5.60
2022-08-26T17:18:58.503Z,6.30
2022-08-26T17:21:55.354Z,5.80
2022-08-26T17:24:52.553Z,6.68
2022-08-26T17:27:49.676Z,5.75
2022-08-26T17:30:46.610Z,5.80
2022-08-26T17:33:45.081Z,5.75
2022-08-26T17:36:44.575Z,5.63
2022-08-26T17:39:43.926Z,5.93
2022-08-26T17:42:41.392Z,5.75
2022-08-26T17:45:40.299Z,6.00
2022-08-26T17:48:38.733Z,5.60
2022-08-26T17:51:35.725Z,5.55
2022-08-26T17:54:32.725Z,6.53
2022-08-26T17:57:30.494Z,5.40
2022-08-26T18:00:27.887Z,5.90
2022-08-26T18:03:24.705Z,5.75
2022-08-26T18:06:23.481Z,6.07
2022-08-26T18:09:21.187Z,6.03
2022-08-26T18:12:18.019Z,6.65
2022-08-26T18:15:17.310Z,6.80
2022-08-26T18:18:15.223Z,6.70
2022-08-26T18:21:18.455Z,6.30
2022-08-26T18:24:15.307Z,6.50
2022-08-26T18:27:12.111Z,6.60
2022-08-26T18:30:16.769Z,6.38
2022-08-26T18:33:14.802Z,6.65
2022-08-26T18:36:18.474Z,6.57
2022-08-26T18:39:16.686Z,6.45
2022-08-26T18:42:13.558Z,5.38
2022-08-26T18:45:16.279Z,5.85
2022-08-26T18:48:14.609Z,6.25
2022-08-26T18:51:24.451Z,6.70
2022-08-26T18:54:21.830Z,5.30
2022-08-26T18:57:18.863Z,5.68
2022-08-26T19:00:16.171Z,5.78
2022-08-26T19:03:18.509Z,6.03
2022-08-26T19:06:20.164Z,5.40
2022-08-26T19:09:18.651Z,5.32
2022-08-26T19:12:15.496Z,6.10
2022-08-26T19:15:13.429Z,6.03
2022-08-26T19:18:14.346Z,6.43
2022-08-26T19:21:11.441Z,6.35
2022-08-26T19:24:15.351Z,6.50
2022-08-26T19:27:14.856Z,6.22
2022-08-26T19:30:12.081Z,6.43
2022-08-26T19:33:10.167Z,5.63
2022-08-26T19:36:11.434Z,8.65
2022-08-26T19:39:11.566Z,7.38
2022-08-26T19:42:08.428Z,6.70
2022-08-26T19:45:11.028Z,6.38
2022-08-26T19:48:21.886Z,7.20
2022-08-26T19:51:28.661Z,6.93
2022-08-26T19:54:25.955Z,6.80
2022-08-26T19:57:22.791Z,7.82
2022-08-26T20:00:25.318Z,7.03
2022-08-26T20:03:23.211Z,7.40
2022-08-26T20:06:20.386Z,6.75
2022-08-26T20:09:17.250Z,7.00
2022-08-26T20:12:16.077Z,6.78
2022-08-26T20:15:14.421Z,7.38
2022-08-26T20:18:29.979Z,7.18
2022-08-26T20:21:29.181Z,6.90
2022-08-26T20:24:27.287Z,7.75
2022-08-26T20:27:37.912Z,7.30
2022-08-26T20:30:35.474Z,7.32
2022-08-26T20:33:44.363Z,7.72
2022-08-26T20:36:44.789Z,8.57
2022-08-26T20:39:41.859Z,8.10
2022-08-26T20:42:38.768Z,7.63
2022-08-26T20:45:35.878Z,7.25
2022-08-26T20:48:32.714Z,6.78
2022-08-26T20:51:30.170Z,6.90
2022-08-26T20:54:28.497Z,7.35
2022-08-26T20:57:25.566Z,7.88
2022-08-26T21:00:24.011Z,8.02
2022-08-26T21:03:24.085Z,7.07
2022-08-26T21:06:21.399Z,7.47
2022-08-26T21:09:22.896Z,7.43
2022-08-26T21:12:19.793Z,7.83
2022-08-26T21:15:16.775Z,7.57
2022-08-26T21:18:13.772Z,8.55
2022-08-26T21:21:11.252Z,7.88
2022-08-26T21:24:08.989Z,6.50
2022-08-26T21:27:05.879Z,6.15
2022-08-26T21:30:02.986Z,7.40
2022-08-26T21:32:59.906Z,7.25
2022-08-26T21:35:56.759Z,7.25
2022-08-26T21:38:59.432Z,7.85
2022-08-26T21:41:57.139Z,7.82
2022-08-26T21:44:54.507Z,7.60
2022-08-26T21:47:51.339Z,7.95
2022-08-26T21:50:48.205Z,7.72
2022-08-26T21:53:45.058Z,7.93
2022-08-26T21:56:46.623Z,7.95
2022-08-26T21:59:43.547Z,8.65
2022-08-26T22:02:41.281Z,8.43
2022-08-26T22:05:50.448Z,7.85
2022-08-26T22:08:47.309Z,7.93
2022-08-26T22:11:44.420Z,6.90
2022-08-26T22:14:41.259Z,8.02
2022-08-26T22:17:38.656Z,7.75
2022-08-26T22:20:35.585Z,7.50
2022-08-26T22:23:32.445Z,7.45
2022-08-26T22:26:32.695Z,8.02
2022-08-26T22:29:29.741Z,8.20
2022-08-26T22:32:26.580Z,7.68
2022-08-26T22:35:28.877Z,7.97
2022-08-26T22:38:27.627Z,7.82
2022-08-26T22:41:25.540Z,9.30
2022-08-26T22:44:23.484Z,8.63
2022-08-26T22:47:20.298Z,8.07
2022-08-26T22:50:17.158Z,8.27
2022-08-26T22:53:16.356Z,8.20
2022-08-26T22:56:14.762Z,7.43
2022-08-26T22:59:13.071Z,7.68
2022-08-26T23:02:12.009Z,8.82
2022-08-26T23:05:11.420Z,8.43
2022-08-26T23:08:09.938Z,7.75
2022-08-26T23:11:11.634Z,8.20
2022-08-26T23:14:08.469Z,7.95
2022-08-26T23:17:05.360Z,8.25
2022-08-26T23:20:08.388Z,9.00
2022-08-26T23:23:05.399Z,7.43
2022-08-26T23:26:06.104Z,8.10
2022-08-26T23:29:05.919Z,8.00
2022-08-26T23:32:04.227Z,8.10
2022-08-26T23:35:01.413Z,7.10
2022-08-26T23:37:59.044Z,8.30
2022-08-26T23:40:55.932Z,7.78
2022-08-26T23:43:52.782Z,8.20
2022-08-26T23:46:49.620Z,7.78
2022-08-26T23:49:46.468Z,7.45
2022-08-26T23:53:01.973Z,8.50
2022-08-26T23:55:58.821Z,8.48
2022-08-26T23:58:55.923Z,8.48
